Ufimets — UFNC — position and weather

sailwx.info

Track history (hours):
 
Tides and Currents Weather Stations Pressure Air Temp Water Temp Dewpoint Dewpoint Depression Visibility Wind Speed Wind Dir Waves Ship Positions

Ufimets

Last reported at 2016-Nov-16 07:08 UTC. Time now 2016-Dec-11 14:08 UTC.
Position N 59°59' E 029°47'.
Warning: this ship's position is 25 days out of date.

Length 82 m; draft 1.8 m.

Type: Ship. MMSI: 27343260.

Date/timePositionNaut miles runAvg speedWind from/ knotsBaromVisibWave heightAir tempDewpointWater temp
2016-Nov-16 07:08N 59°59' E 029°47'  
2016-Nov-13 10:20N 60°10' E 028°55'12 6.8
2016-Nov-13 08:32N 60°16' E 028°33'53 1.1
2016-Nov-11 10:33N 59°53' E 030°09'2 1.9
2016-Nov-11 09:33N 59°53' E 030°13'0 0.0
2016-Nov-11 06:33N 59°53' E 030°13'0 0.0
2016-Nov-11 05:33N 59°53' E 030°13'0 0.0
2016-Nov-11 04:33N 59°53' E 030°13'0 0.0
2016-Nov-11 03:33N 59°53' E 030°13'0 0.0
2016-Nov-11 02:33N 59°53' E 030°13'0 0.0
2016-Nov-11 01:33N 59°53' E 030°13'3 3.1
2016-Nov-11 00:33N 59°56' E 030°16'4 3.9
2016-Nov-10 23:33N 59°55' E 030°24'0 0.1
2016-Nov-10 20:33N 59°55' E 030°24'0 0.0
2016-Nov-10 18:33N 59°55' E 030°24'0 0.0
2016-Nov-10 16:32N 59°55' E 030°24'0 0.0
2016-Nov-10 15:33N 59°55' E 030°24'0 0.1
2016-Nov-10 11:33N 59°55' E 030°24'  
Track history (hours):
 
Tides and Currents Weather Stations Pressure Air Temp Water Temp Dewpoint Dewpoint Depression Visibility Wind Speed Wind Dir Waves Ship Positions

Ufimets

Last reported at 2016-Nov-16 07:08 UTC. Time now 2016-Dec-11 14:08 UTC.
Position N 59°59' E 029°47'.
Warning: this ship's position is 25 days out of date.

Length 82 m; draft 1.8 m.

Type: Ship. MMSI: 27343260.

Date/timePositionNaut miles runAvg speedWind from/ knotsBaromVisibWave heightAir tempDewpointWater temp
2016-Nov-16 07:08N 59°59' E 029°47'  
2016-Nov-13 10:20N 60°10' E 028°55'12 6.8
2016-Nov-13 08:32N 60°16' E 028°33'53 1.1
2016-Nov-11 10:33N 59°53' E 030°09'2 1.9
2016-Nov-11 09:33N 59°53' E 030°13'0 0.0
2016-Nov-11 06:33N 59°53' E 030°13'0 0.0
2016-Nov-11 05:33N 59°53' E 030°13'0 0.0
2016-Nov-11 04:33N 59°53' E 030°13'0 0.0
2016-Nov-11 03:33N 59°53' E 030°13'0 0.0
2016-Nov-11 02:33N 59°53' E 030°13'0 0.0
2016-Nov-11 01:33N 59°53' E 030°13'3 3.1
2016-Nov-11 00:33N 59°56' E 030°16'4 3.9
2016-Nov-10 23:33N 59°55' E 030°24'0 0.1
2016-Nov-10 20:33N 59°55' E 030°24'0 0.0
2016-Nov-10 18:33N 59°55' E 030°24'0 0.0
2016-Nov-10 16:32N 59°55' E 030°24'0 0.0
2016-Nov-10 15:33N 59°55' E 030°24'0 0.1
2016-Nov-10 11:33N 59°55' E 030°24'  

Dump ship's entire track history